sensor_id;sensor_type;location;lat;lon;timestamp;P1;durP1;ratioP1;P2;durP2;ratioP2
9524;SDS011;15940;48.734;9.112;2023-09-19T00:02:26;1.50;;;1.00;;
9524;SDS011;15940;48.734;9.112;2023-09-19T00:04:54;1.73;;;1.10;;
9524;SDS011;15940;48.734;9.112;2023-09-19T00:07:21;1.70;;;1.33;;
9524;SDS011;15940;48.734;9.112;2023-09-19T00:09:48;0.97;;;0.90;;
9524;SDS011;15940;48.734;9.112;2023-09-19T00:12:15;1.20;;;1.10;;
9524;SDS011;15940;48.734;9.112;2023-09-19T00:14:43;1.03;;;1.03;;
9524;SDS011;15940;48.734;9.112;2023-09-19T00:17:11;1.60;;;1.10;;
9524;SDS011;15940;48.734;9.112;2023-09-19T00:19:38;1.23;;;1.03;;
9524;SDS011;15940;48.734;9.112;2023-09-19T00:22:07;1.13;;;1.03;;
9524;SDS011;15940;48.734;9.112;2023-09-19T00:24:34;1.20;;;1.20;;
9524;SDS011;15940;48.734;9.112;2023-09-19T00:27:01;2.77;;;1.10;;
9524;SDS011;15940;48.734;9.112;2023-09-19T00:29:30;2.13;;;1.07;;
9524;SDS011;15940;48.734;9.112;2023-09-19T00:31:58;1.20;;;1.10;;
9524;SDS011;15940;48.734;9.112;2023-09-19T00:34:27;1.23;;;1.10;;
9524;SDS011;15940;48.734;9.112;2023-09-19T00:36:54;1.10;;;1.10;;
9524;SDS011;15940;48.734;9.112;2023-09-19T00:39:21;1.60;;;0.87;;
9524;SDS011;15940;48.734;9.112;2023-09-19T00:41:50;0.93;;;0.93;;
9524;SDS011;15940;48.734;9.112;2023-09-19T00:44:17;1.20;;;1.10;;
9524;SDS011;15940;48.734;9.112;2023-09-19T00:46:46;0.83;;;0.83;;
9524;SDS011;15940;48.734;9.112;2023-09-19T00:49:15;1.10;;;1.10;;
9524;SDS011;15940;48.734;9.112;2023-09-19T00:51:43;1.20;;;1.07;;
9524;SDS011;15940;48.734;9.112;2023-09-19T00:54:12;1.37;;;0.90;;
9524;SDS011;15940;48.734;9.112;2023-09-19T00:56:43;1.60;;;1.30;;
9524;SDS011;15940;48.734;9.112;2023-09-19T00:59:14;1.30;;;1.20;;
9524;SDS011;15940;48.734;9.112;2023-09-19T01:01:41;1.17;;;1.00;;
9524;SDS011;15940;48.734;9.112;2023-09-19T01:04:10;0.87;;;0.87;;
9524;SDS011;15940;48.734;9.112;2023-09-19T01:06:38;2.00;;;1.00;;
9524;SDS011;15940;48.734;9.112;2023-09-19T01:09:07;2.57;;;1.00;;
9524;SDS011;15940;48.734;9.112;2023-09-19T01:11:35;0.90;;;0.90;;
9524;SDS011;15940;48.734;9.112;2023-09-19T01:14:12;1.03;;;0.90;;
9524;SDS011;15940;48.734;9.112;2023-09-19T01:16:53;1.47;;;0.90;;
9524;SDS011;15940;48.734;9.112;2023-09-19T01:19:38;1.67;;;0.80;;
9524;SDS011;15940;48.734;9.112;2023-09-19T01:22:44;1.40;;;1.30;;
9524;SDS011;15940;48.734;9.112;2023-09-19T01:28:42;0.90;;;0.90;;
9524;SDS011;15940;48.734;9.112;2023-09-19T01:31:21;1.23;;;1.10;;
9524;SDS011;15940;48.734;9.112;2023-09-19T01:33:57;1.17;;;0.83;;
9524;SDS011;15940;48.734;9.112;2023-09-19T01:36:27;1.53;;;1.10;;
9524;SDS011;15940;48.734;9.112;2023-09-19T01:38:55;1.57;;;1.03;;
9524;SDS011;15940;48.734;9.112;2023-09-19T01:41:26;1.23;;;0.87;;
9524;SDS011;15940;48.734;9.112;2023-09-19T01:44:06;1.37;;;1.27;;
9524;SDS011;15940;48.734;9.112;2023-09-19T01:46:40;1.70;;;1.10;;
9524;SDS011;15940;48.734;9.112;2023-09-19T01:49:12;1.33;;;0.90;;
9524;SDS011;15940;48.734;9.112;2023-09-19T01:51:55;1.83;;;1.00;;
9524;SDS011;15940;48.734;9.112;2023-09-19T01:54:33;1.13;;;0.97;;
9524;SDS011;15940;48.734;9.112;2023-09-19T01:57:22;1.00;;;1.00;;
9524;SDS011;15940;48.734;9.112;2023-09-19T01:59:57;0.97;;;0.97;;
9524;SDS011;15940;48.734;9.112;2023-09-19T02:02:33;0.90;;;0.77;;
9524;SDS011;15940;48.734;9.112;2023-09-19T02:05:02;0.87;;;0.83;;
9524;SDS011;15940;48.734;9.112;2023-09-19T02:07:31;0.87;;;0.80;;
9524;SDS011;15940;48.734;9.112;2023-09-19T02:09:58;0.80;;;0.80;;
9524;SDS011;15940;48.734;9.112;2023-09-19T02:12:26;1.03;;;0.90;;
9524;SDS011;15940;48.734;9.112;2023-09-19T02:14:53;0.87;;;0.87;;
9524;SDS011;15940;48.734;9.112;2023-09-19T02:17:22;1.27;;;0.80;;
9524;SDS011;15940;48.734;9.112;2023-09-19T02:19:52;0.80;;;0.80;;
9524;SDS011;15940;48.734;9.112;2023-09-19T02:22:19;1.93;;;1.00;;
9524;SDS011;15940;48.734;9.112;2023-09-19T02:24:47;1.33;;;0.63;;
9524;SDS011;15940;48.734;9.112;2023-09-19T02:27:15;1.10;;;0.87;;
9524;SDS011;15940;48.734;9.112;2023-09-19T02:29:43;0.87;;;0.77;;
9524;SDS011;15940;48.734;9.112;2023-09-19T02:32:10;2.00;;;1.20;;
9524;SDS011;15940;48.734;9.112;2023-09-19T02:34:37;1.37;;;0.90;;
9524;SDS011;15940;48.734;9.112;2023-09-19T02:37:06;0.73;;;0.73;;
9524;SDS011;15940;48.734;9.112;2023-09-19T02:39:33;0.83;;;0.83;;
9524;SDS011;15940;48.734;9.112;2023-09-19T02:42:00;1.20;;;1.00;;
9524;SDS011;15940;48.734;9.112;2023-09-19T02:44:29;0.67;;;0.67;;
9524;SDS011;15940;48.734;9.112;2023-09-19T02:46:56;0.80;;;0.80;;
9524;SDS011;15940;48.734;9.112;2023-09-19T02:49:23;0.93;;;0.90;;
9524;SDS011;15940;48.734;9.112;2023-09-19T02:51:50;2.03;;;0.93;;
9524;SDS011;15940;48.734;9.112;2023-09-19T02:54:18;1.83;;;1.07;;
9524;SDS011;15940;48.734;9.112;2023-09-19T02:56:46;0.90;;;0.90;;
9524;SDS011;15940;48.734;9.112;2023-09-19T02:59:14;2.40;;;1.20;;
9524;SDS011;15940;48.734;9.112;2023-09-19T03:01:42;1.10;;;1.10;;
9524;SDS011;15940;48.734;9.112;2023-09-19T03:04:11;1.13;;;1.07;;
9524;SDS011;15940;48.734;9.112;2023-09-19T03:06:38;1.00;;;1.00;;
9524;SDS011;15940;48.734;9.112;2023-09-19T03:09:06;1.33;;;0.80;;
9524;SDS011;15940;48.734;9.112;2023-09-19T03:11:40;1.07;;;0.90;;
9524;SDS011;15940;48.734;9.112;2023-09-19T03:14:07;2.27;;;0.90;;
9524;SDS011;15940;48.734;9.112;2023-09-19T03:16:35;1.20;;;1.10;;
9524;SDS011;15940;48.734;9.112;2023-09-19T03:19:02;2.13;;;1.00;;
9524;SDS011;15940;48.734;9.112;2023-09-19T03:21:30;1.90;;;0.90;;
9524;SDS011;15940;48.734;9.112;2023-09-19T03:23:57;4.50;;;1.20;;
9524;SDS011;15940;48.734;9.112;2023-09-19T03:26:24;2.30;;;1.00;;
9524;SDS011;15940;48.734;9.112;2023-09-19T03:28:53;2.00;;;1.30;;
9524;SDS011;15940;48.734;9.112;2023-09-19T03:31:20;1.07;;;1.00;;
9524;SDS011;15940;48.734;9.112;2023-09-19T03:33:47;1.23;;;1.13;;
9524;SDS011;15940;48.734;9.112;2023-09-19T03:36:14;1.97;;;0.80;;
9524;SDS011;15940;48.734;9.112;2023-09-19T03:38:41;1.87;;;1.30;;
9524;SDS011;15940;48.734;9.112;2023-09-19T03:41:08;1.13;;;1.00;;
9524;SDS011;15940;48.734;9.112;2023-09-19T03:43:39;1.00;;;1.00;;
9524;SDS011;15940;48.734;9.112;2023-09-19T03:46:07;2.57;;;1.17;;
9524;SDS011;15940;48.734;9.112;2023-09-19T03:48:34;1.10;;;1.00;;
9524;SDS011;15940;48.734;9.112;2023-09-19T03:51:01;1.07;;;1.07;;
9524;SDS011;15940;48.734;9.112;2023-09-19T03:53:28;1.27;;;1.17;;
9524;SDS011;15940;48.734;9.112;2023-09-19T03:55:55;1.13;;;1.00;;
9524;SDS011;15940;48.734;9.112;2023-09-19T03:58:22;1.33;;;1.23;;
9524;SDS011;15940;48.734;9.112;2023-09-19T04:00:49;1.30;;;1.20;;
9524;SDS011;15940;48.734;9.112;2023-09-19T04:03:17;1.10;;;1.10;;
9524;SDS011;15940;48.734;9.112;2023-09-19T04:05:45;1.00;;;1.00;;
9524;SDS011;15940;48.734;9.112;2023-09-19T04:08:13;1.00;;;1.00;;
9524;SDS011;15940;48.734;9.112;2023-09-19T04:10:41;2.50;;;1.17;;
9524;SDS011;15940;48.734;9.112;2023-09-19T04:13:09;1.17;;;0.90;;
9524;SDS011;15940;48.734;9.112;2023-09-19T04:15:36;1.60;;;1.23;;
9524;SDS011;15940;48.734;9.112;2023-09-19T04:18:05;3.07;;;1.00;;
9524;SDS011;15940;48.734;9.112;2023-09-19T04:20:33;1.20;;;1.10;;
9524;SDS011;15940;48.734;9.112;2023-09-19T04:23:00;1.30;;;1.20;;
9524;SDS011;15940;48.734;9.112;2023-09-19T04:25:29;1.53;;;1.30;;
9524;SDS011;15940;48.734;9.112;2023-09-19T04:27:56;1.10;;;1.10;;
9524;SDS011;15940;48.734;9.112;2023-09-19T04:30:24;2.80;;;1.10;;
9524;SDS011;15940;48.734;9.112;2023-09-19T04:32:51;1.00;;;1.00;;
9524;SDS011;15940;48.734;9.112;2023-09-19T04:35:18;2.53;;;1.10;;
9524;SDS011;15940;48.734;9.112;2023-09-19T04:37:47;2.23;;;1.23;;
9524;SDS011;15940;48.734;9.112;2023-09-19T04:40:14;2.27;;;1.10;;
9524;SDS011;15940;48.734;9.112;2023-09-19T04:42:42;1.00;;;1.00;;
9524;SDS011;15940;48.734;9.112;2023-09-19T04:45:09;1.30;;;1.07;;
9524;SDS011;15940;48.734;9.112;2023-09-19T04:47:37;1.37;;;1.27;;
9524;SDS011;15940;48.734;9.112;2023-09-19T04:50:06;1.00;;;1.00;;
9524;SDS011;15940;48.734;9.112;2023-09-19T04:52:39;0.80;;;0.80;;
9524;SDS011;15940;48.734;9.112;2023-09-19T04:55:10;2.80;;;1.30;;
9524;SDS011;15940;48.734;9.112;2023-09-19T04:57:42;1.30;;;1.20;;
9524;SDS011;15940;48.734;9.112;2023-09-19T05:00:11;1.33;;;1.23;;
9524;SDS011;15940;48.734;9.112;2023-09-19T05:02:40;2.43;;;1.40;;
9524;SDS011;15940;48.734;9.112;2023-09-19T05:05:07;1.20;;;1.20;;
9524;SDS011;15940;48.734;9.112;2023-09-19T05:07:36;2.73;;;1.43;;
9524;SDS011;15940;48.734;9.112;2023-09-19T05:10:03;4.77;;;1.40;;
9524;SDS011;15940;48.734;9.112;2023-09-19T05:12:33;1.40;;;1.30;;
9524;SDS011;15940;48.734;9.112;2023-09-19T05:15:01;1.57;;;1.20;;
9524;SDS011;15940;48.734;9.112;2023-09-19T05:17:28;3.17;;;1.37;;
9524;SDS011;15940;48.734;9.112;2023-09-19T05:19:56;2.30;;;1.50;;
9524;SDS011;15940;48.734;9.112;2023-09-19T05:22:26;1.47;;;1.37;;
9524;SDS011;15940;48.734;9.112;2023-09-19T05:24:54;1.40;;;1.30;;
9524;SDS011;15940;48.734;9.112;2023-09-19T05:27:21;1.37;;;1.33;;
9524;SDS011;15940;48.734;9.112;2023-09-19T05:29:49;1.20;;;1.10;;
9524;SDS011;15940;48.734;9.112;2023-09-19T05:32:18;1.93;;;1.40;;
9524;SDS011;15940;48.734;9.112;2023-09-19T05:34:45;1.33;;;1.20;;
9524;SDS011;15940;48.734;9.112;2023-09-19T05:37:12;1.33;;;1.23;;
9524;SDS011;15940;48.734;9.112;2023-09-19T05:39:41;1.50;;;1.40;;
9524;SDS011;15940;48.734;9.112;2023-09-19T05:42:08;3.10;;;1.63;;
9524;SDS011;15940;48.734;9.112;2023-09-19T05:44:35;1.87;;;1.30;;
9524;SDS011;15940;48.734;9.112;2023-09-19T05:47:04;3.33;;;1.80;;
9524;SDS011;15940;48.734;9.112;2023-09-19T05:49:33;2.20;;;1.50;;
9524;SDS011;15940;48.734;9.112;2023-09-19T05:52:03;1.40;;;1.20;;
9524;SDS011;15940;48.734;9.112;2023-09-19T05:54:31;1.60;;;1.47;;
9524;SDS011;15940;48.734;9.112;2023-09-19T05:56:59;3.57;;;1.70;;
9524;SDS011;15940;48.734;9.112;2023-09-19T05:59:26;1.40;;;1.30;;
9524;SDS011;15940;48.734;9.112;2023-09-19T06:01:53;1.87;;;1.20;;
9524;SDS011;15940;48.734;9.112;2023-09-19T06:04:21;1.80;;;1.40;;
9524;SDS011;15940;48.734;9.112;2023-09-19T06:06:48;1.77;;;1.23;;
9524;SDS011;15940;48.734;9.112;2023-09-19T06:09:16;2.07;;;1.70;;
9524;SDS011;15940;48.734;9.112;2023-09-19T06:11:44;2.00;;;1.30;;
9524;SDS011;15940;48.734;9.112;2023-09-19T06:14:11;1.90;;;1.50;;
9524;SDS011;15940;48.734;9.112;2023-09-19T06:16:39;2.00;;;1.60;;
9524;SDS011;15940;48.734;9.112;2023-09-19T06:19:07;1.60;;;1.50;;
9524;SDS011;15940;48.734;9.112;2023-09-19T06:21:35;3.47;;;1.73;;
9524;SDS011;15940;48.734;9.112;2023-09-19T06:24:02;1.67;;;1.40;;
9524;SDS011;15940;48.734;9.112;2023-09-19T06:26:30;2.37;;;1.47;;
9524;SDS011;15940;48.734;9.112;2023-09-19T06:28:57;2.03;;;1.80;;
9524;SDS011;15940;48.734;9.112;2023-09-19T06:31:24;2.43;;;1.60;;
9524;SDS011;15940;48.734;9.112;2023-09-19T06:33:52;2.73;;;1.60;;
9524;SDS011;15940;48.734;9.112;2023-09-19T06:36:19;1.53;;;1.43;;
9524;SDS011;15940;48.734;9.112;2023-09-19T06:38:47;1.87;;;1.47;;
9524;SDS011;15940;48.734;9.112;2023-09-19T06:41:16;2.27;;;1.50;;
9524;SDS011;15940;48.734;9.112;2023-09-19T06:43:43;1.97;;;1.50;;
9524;SDS011;15940;48.734;9.112;2023-09-19T06:46:10;2.07;;;1.50;;
9524;SDS011;15940;48.734;9.112;2023-09-19T06:48:37;2.10;;;1.47;;
9524;SDS011;15940;48.734;9.112;2023-09-19T06:51:04;2.73;;;1.70;;
9524;SDS011;15940;48.734;9.112;2023-09-19T06:53:31;2.40;;;2.03;;
9524;SDS011;15940;48.734;9.112;2023-09-19T06:56:01;1.50;;;1.40;;
9524;SDS011;15940;48.734;9.112;2023-09-19T06:58:28;1.60;;;1.50;;
9524;SDS011;15940;48.734;9.112;2023-09-19T07:00:56;2.03;;;1.58;;
9524;SDS011;15940;48.734;9.112;2023-09-19T07:03:23;2.40;;;1.70;;
9524;SDS011;15940;48.734;9.112;2023-09-19T07:05:51;1.93;;;1.70;;
9524;SDS011;15940;48.734;9.112;2023-09-19T07:08:21;2.97;;;1.63;;
9524;SDS011;15940;48.734;9.112;2023-09-19T07:10:48;2.20;;;1.73;;
9524;SDS011;15940;48.734;9.112;2023-09-19T07:13:20;2.20;;;1.47;;
9524;SDS011;15940;48.734;9.112;2023-09-19T07:15:47;1.53;;;1.43;;
9524;SDS011;15940;48.734;9.112;2023-09-19T07:18:15;1.87;;;1.50;;
9524;SDS011;15940;48.734;9.112;2023-09-19T07:20:42;2.60;;;1.47;;
9524;SDS011;15940;48.734;9.112;2023-09-19T07:23:13;2.43;;;1.30;;
9524;SDS011;15940;48.734;9.112;2023-09-19T07:25:41;1.53;;;1.43;;
9524;SDS011;15940;48.734;9.112;2023-09-19T07:28:08;2.83;;;1.33;;
9524;SDS011;15940;48.734;9.112;2023-09-19T07:30:37;1.50;;;1.40;;
9524;SDS011;15940;48.734;9.112;2023-09-19T07:33:06;2.40;;;1.63;;
9524;SDS011;15940;48.734;9.112;2023-09-19T07:35:36;2.87;;;1.60;;
9524;SDS011;15940;48.734;9.112;2023-09-19T07:38:04;1.43;;;1.33;;
9524;SDS011;15940;48.734;9.112;2023-09-19T07:40:31;1.40;;;1.30;;
9524;SDS011;15940;48.734;9.112;2023-09-19T07:42:58;2.20;;;1.40;;
9524;SDS011;15940;48.734;9.112;2023-09-19T07:45:26;1.93;;;1.30;;
9524;SDS011;15940;48.734;9.112;2023-09-19T07:47:56;2.13;;;1.40;;
9524;SDS011;15940;48.734;9.112;2023-09-19T07:50:23;1.70;;;1.50;;
9524;SDS011;15940;48.734;9.112;2023-09-19T07:52:51;1.10;;;1.10;;
9524;SDS011;15940;48.734;9.112;2023-09-19T07:55:21;1.17;;;1.13;;
9524;SDS011;15940;48.734;9.112;2023-09-19T07:57:51;1.17;;;1.03;;
9524;SDS011;15940;48.734;9.112;2023-09-19T08:00:18;2.10;;;1.30;;
9524;SDS011;15940;48.734;9.112;2023-09-19T08:02:45;2.17;;;1.10;;
9524;SDS011;15940;48.734;9.112;2023-09-19T08:05:14;1.10;;;1.10;;
9524;SDS011;15940;48.734;9.112;2023-09-19T08:07:41;2.93;;;1.80;;
9524;SDS011;15940;48.734;9.112;2023-09-19T08:10:13;2.20;;;1.40;;
9524;SDS011;15940;48.734;9.112;2023-09-19T08:12:41;1.83;;;1.20;;
9524;SDS011;15940;48.734;9.112;2023-09-19T08:15:11;1.60;;;1.47;;
9524;SDS011;15940;48.734;9.112;2023-09-19T08:17:39;1.23;;;1.10;;
9524;SDS011;15940;48.734;9.112;2023-09-19T08:20:07;2.07;;;1.40;;
9524;SDS011;15940;48.734;9.112;2023-09-19T08:22:42;1.33;;;1.20;;
9524;SDS011;15940;48.734;9.112;2023-09-19T08:25:13;1.30;;;1.20;;
9524;SDS011;15940;48.734;9.112;2023-09-19T08:27:42;2.33;;;1.40;;
9524;SDS011;15940;48.734;9.112;2023-09-19T08:30:12;1.33;;;1.23;;
9524;SDS011;15940;48.734;9.112;2023-09-19T08:32:41;3.50;;;1.13;;
9524;SDS011;15940;48.734;9.112;2023-09-19T08:35:08;1.50;;;1.40;;
9524;SDS011;15940;48.734;9.112;2023-09-19T08:37:36;1.27;;;1.17;;
9524;SDS011;15940;48.734;9.112;2023-09-19T08:40:05;1.40;;;1.17;;
9524;SDS011;15940;48.734;9.112;2023-09-19T08:42:46;1.30;;;1.20;;
9524;SDS011;15940;48.734;9.112;2023-09-19T08:45:15;1.57;;;1.10;;
9524;SDS011;15940;48.734;9.112;2023-09-19T08:47:45;1.33;;;1.10;;
9524;SDS011;15940;48.734;9.112;2023-09-19T08:50:23;1.60;;;1.50;;
9524;SDS011;15940;48.734;9.112;2023-09-19T08:52:55;1.77;;;1.30;;
9524;SDS011;15940;48.734;9.112;2023-09-19T08:55:27;1.70;;;1.50;;
9524;SDS011;15940;48.734;9.112;2023-09-19T08:57:58;2.13;;;1.27;;
9524;SDS011;15940;48.734;9.112;2023-09-19T09:00:27;1.40;;;1.30;;
9524;SDS011;15940;48.734;9.112;2023-09-19T09:02:55;2.90;;;1.40;;
9524;SDS011;15940;48.734;9.112;2023-09-19T09:05:23;1.00;;;1.00;;
9524;SDS011;15940;48.734;9.112;2023-09-19T09:07:51;1.30;;;1.20;;
9524;SDS011;15940;48.734;9.112;2023-09-19T09:10:20;1.23;;;1.13;;
9524;SDS011;15940;48.734;9.112;2023-09-19T09:12:49;2.00;;;1.43;;
9524;SDS011;15940;48.734;9.112;2023-09-19T09:15:18;1.40;;;1.30;;
9524;SDS011;15940;48.734;9.112;2023-09-19T09:17:47;2.27;;;1.40;;
9524;SDS011;15940;48.734;9.112;2023-09-19T09:20:15;2.10;;;1.30;;
9524;SDS011;15940;48.734;9.112;2023-09-19T09:22:50;3.63;;;1.40;;
9524;SDS011;15940;48.734;9.112;2023-09-19T09:25:18;1.60;;;1.30;;
9524;SDS011;15940;48.734;9.112;2023-09-19T09:27:53;1.83;;;1.37;;
9524;SDS011;15940;48.734;9.112;2023-09-19T09:30:32;1.20;;;1.10;;
9524;SDS011;15940;48.734;9.112;2023-09-19T09:33:09;1.73;;;1.50;;
9524;SDS011;15940;48.734;9.112;2023-09-19T09:35:38;1.30;;;1.20;;
9524;SDS011;15940;48.734;9.112;2023-09-19T09:38:17;1.50;;;1.40;;
9524;SDS011;15940;48.734;9.112;2023-09-19T09:40:48;1.90;;;1.33;;
9524;SDS011;15940;48.734;9.112;2023-09-19T09:43:29;1.50;;;1.40;;
9524;SDS011;15940;48.734;9.112;2023-09-19T09:46:09;1.53;;;1.43;;
9524;SDS011;15940;48.734;9.112;2023-09-19T09:48:55;1.87;;;1.43;;
9524;SDS011;15940;48.734;9.112;2023-09-19T09:51:43;2.63;;;1.40;;
9524;SDS011;15940;48.734;9.112;2023-09-19T09:54:22;1.47;;;1.37;;
9524;SDS011;15940;48.734;9.112;2023-09-19T09:56:53;2.13;;;1.30;;
9524;SDS011;15940;48.734;9.112;2023-09-19T09:59:31;2.03;;;1.30;;
9524;SDS011;15940;48.734;9.112;2023-09-19T10:02:15;2.63;;;1.40;;
9524;SDS011;15940;48.734;9.112;2023-09-19T10:04:50;2.93;;;1.30;;
9524;SDS011;15940;48.734;9.112;2023-09-19T10:07:27;1.60;;;1.33;;
9524;SDS011;15940;48.734;9.112;2023-09-19T10:10:03;1.47;;;1.37;;
9524;SDS011;15940;48.734;9.112;2023-09-19T10:12:38;2.07;;;1.30;;
9524;SDS011;15940;48.734;9.112;2023-09-19T10:15:12;1.40;;;1.27;;
9524;SDS011;15940;48.734;9.112;2023-09-19T10:17:41;1.70;;;1.40;;
9524;SDS011;15940;48.734;9.112;2023-09-19T10:20:11;1.43;;;1.30;;
9524;SDS011;15940;48.734;9.112;2023-09-19T10:23:03;2.50;;;1.50;;
9524;SDS011;15940;48.734;9.112;2023-09-19T10:25:36;1.30;;;1.20;;
9524;SDS011;15940;48.734;9.112;2023-09-19T10:28:05;2.27;;;1.57;;
9524;SDS011;15940;48.734;9.112;2023-09-19T10:30:37;1.77;;;1.40;;
9524;SDS011;15940;48.734;9.112;2023-09-19T10:33:09;2.00;;;1.70;;
9524;SDS011;15940;48.734;9.112;2023-09-19T10:35:37;1.50;;;1.20;;
9524;SDS011;15940;48.734;9.112;2023-09-19T10:38:06;1.80;;;1.30;;
9524;SDS011;15940;48.734;9.112;2023-09-19T10:40:35;3.70;;;1.50;;
9524;SDS011;15940;48.734;9.112;2023-09-19T10:43:08;3.00;;;1.40;;
9524;SDS011;15940;48.734;9.112;2023-09-19T10:45:41;2.10;;;1.30;;
9524;SDS011;15940;48.734;9.112;2023-09-19T10:48:10;3.07;;;1.33;;
9524;SDS011;15940;48.734;9.112;2023-09-19T10:50:41;2.00;;;1.03;;
9524;SDS011;15940;48.734;9.112;2023-09-19T10:53:12;2.00;;;1.30;;
9524;SDS011;15940;48.734;9.112;2023-09-19T10:55:40;1.30;;;1.20;;
9524;SDS011;15940;48.734;9.112;2023-09-19T10:58:23;1.10;;;1.10;;
9524;SDS011;15940;48.734;9.112;2023-09-19T11:00:56;1.00;;;1.00;;
9524;SDS011;15940;48.734;9.112;2023-09-19T11:03:30;1.67;;;1.10;;
9524;SDS011;15940;48.734;9.112;2023-09-19T11:08:52;2.23;;;1.23;;
9524;SDS011;15940;48.734;9.112;2023-09-19T11:11:40;1.40;;;1.30;;
9524;SDS011;15940;48.734;9.112;2023-09-19T11:20:24;1.20;;;1.20;;
9524;SDS011;15940;48.734;9.112;2023-09-19T11:23:17;2.80;;;1.40;;
9524;SDS011;15940;48.734;9.112;2023-09-19T11:25:48;1.63;;;1.50;;
9524;SDS011;15940;48.734;9.112;2023-09-19T11:28:30;1.80;;;1.23;;
9524;SDS011;15940;48.734;9.112;2023-09-19T11:30:59;1.33;;;1.07;;
9524;SDS011;15940;48.734;9.112;2023-09-19T11:33:51;1.30;;;1.20;;
9524;SDS011;15940;48.734;9.112;2023-09-19T11:40:44;0.90;;;0.90;;
9524;SDS011;15940;48.734;9.112;2023-09-19T11:43:32;0.90;;;0.90;;
9524;SDS011;15940;48.734;9.112;2023-09-19T11:46:04;1.40;;;1.00;;
9524;SDS011;15940;48.734;9.112;2023-09-19T11:48:40;2.20;;;0.80;;
9524;SDS011;15940;48.734;9.112;2023-09-19T11:51:11;1.93;;;1.10;;
9524;SDS011;15940;48.734;9.112;2023-09-19T11:53:47;1.13;;;1.00;;
9524;SDS011;15940;48.734;9.112;2023-09-19T11:56:16;1.67;;;1.10;;
9524;SDS011;15940;48.734;9.112;2023-09-19T11:58:48;1.33;;;1.10;;
9524;SDS011;15940;48.734;9.112;2023-09-19T12:01:21;1.70;;;1.20;;
9524;SDS011;15940;48.734;9.112;2023-09-19T12:03:52;1.30;;;1.10;;
9524;SDS011;15940;48.734;9.112;2023-09-19T12:06:23;3.20;;;1.17;;
9524;SDS011;15940;48.734;9.112;2023-09-19T12:08:51;1.27;;;1.00;;
9524;SDS011;15940;48.734;9.112;2023-09-19T12:11:21;1.63;;;1.20;;
9524;SDS011;15940;48.734;9.112;2023-09-19T12:13:49;2.67;;;1.03;;
9524;SDS011;15940;48.734;9.112;2023-09-19T12:16:18;1.23;;;1.10;;
9524;SDS011;15940;48.734;9.112;2023-09-19T12:18:48;1.27;;;1.17;;
9524;SDS011;15940;48.734;9.112;2023-09-19T12:21:24;1.53;;;1.20;;
9524;SDS011;15940;48.734;9.112;2023-09-19T12:24:03;1.10;;;1.10;;
9524;SDS011;15940;48.734;9.112;2023-09-19T12:26:41;2.10;;;1.23;;
9524;SDS011;15940;48.734;9.112;2023-09-19T12:29:13;3.20;;;1.23;;
9524;SDS011;15940;48.734;9.112;2023-09-19T12:31:50;1.30;;;1.20;;
9524;SDS011;15940;48.734;9.112;2023-09-19T12:34:20;1.40;;;1.30;;
9524;SDS011;15940;48.734;9.112;2023-09-19T12:37:04;1.23;;;1.13;;
9524;SDS011;15940;48.734;9.112;2023-09-19T12:39:41;2.77;;;1.37;;
9524;SDS011;15940;48.734;9.112;2023-09-19T12:42:13;1.13;;;1.10;;
9524;SDS011;15940;48.734;9.112;2023-09-19T12:44:42;2.90;;;1.30;;
9524;SDS011;15940;48.734;9.112;2023-09-19T12:47:12;1.53;;;1.40;;
9524;SDS011;15940;48.734;9.112;2023-09-19T12:52:52;4.10;;;1.30;;
9524;SDS011;15940;48.734;9.112;2023-09-19T12:55:22;1.43;;;1.33;;
9524;SDS011;15940;48.734;9.112;2023-09-19T12:58:11;3.53;;;1.30;;
9524;SDS011;15940;48.734;9.112;2023-09-19T13:00:40;1.40;;;1.30;;
9524;SDS011;15940;48.734;9.112;2023-09-19T13:03:13;2.57;;;1.30;;
9524;SDS011;15940;48.734;9.112;2023-09-19T13:05:48;2.57;;;1.03;;
9524;SDS011;15940;48.734;9.112;2023-09-19T13:08:18;1.20;;;1.07;;
9524;SDS011;15940;48.734;9.112;2023-09-19T13:11:07;2.63;;;1.13;;
9524;SDS011;15940;48.734;9.112;2023-09-19T13:13:41;1.57;;;1.20;;
9524;SDS011;15940;48.734;9.112;2023-09-19T13:16:10;1.80;;;1.37;;
9524;SDS011;15940;48.734;9.112;2023-09-19T13:18:43;1.90;;;1.17;;
9524;SDS011;15940;48.734;9.112;2023-09-19T13:21:11;1.33;;;1.20;;
9524;SDS011;15940;48.734;9.112;2023-09-19T13:23:53;1.53;;;1.20;;
9524;SDS011;15940;48.734;9.112;2023-09-19T13:26:24;1.50;;;1.40;;
9524;SDS011;15940;48.734;9.112;2023-09-19T13:28:53;1.63;;;1.33;;
9524;SDS011;15940;48.734;9.112;2023-09-19T13:31:20;1.40;;;1.30;;
9524;SDS011;15940;48.734;9.112;2023-09-19T13:33:48;2.60;;;1.23;;
9524;SDS011;15940;48.734;9.112;2023-09-19T13:36:17;1.23;;;1.20;;
9524;SDS011;15940;48.734;9.112;2023-09-19T13:38:44;1.30;;;1.20;;
9524;SDS011;15940;48.734;9.112;2023-09-19T13:41:15;1.77;;;1.30;;
9524;SDS011;15940;48.734;9.112;2023-09-19T13:43:42;3.33;;;0.93;;
9524;SDS011;15940;48.734;9.112;2023-09-19T13:46:13;1.10;;;1.07;;
9524;SDS011;15940;48.734;9.112;2023-09-19T13:48:41;2.97;;;1.20;;
9524;SDS011;15940;48.734;9.112;2023-09-19T13:51:08;1.53;;;1.30;;
9524;SDS011;15940;48.734;9.112;2023-09-19T13:53:35;1.60;;;1.23;;
9524;SDS011;15940;48.734;9.112;2023-09-19T13:56:02;1.43;;;1.10;;
9524;SDS011;15940;48.734;9.112;2023-09-19T13:58:31;1.17;;;1.00;;
9524;SDS011;15940;48.734;9.112;2023-09-19T14:00:58;3.43;;;1.30;;
9524;SDS011;15940;48.734;9.112;2023-09-19T14:03:25;1.17;;;1.17;;
9524;SDS011;15940;48.734;9.112;2023-09-19T14:05:53;1.13;;;1.10;;
9524;SDS011;15940;48.734;9.112;2023-09-19T14:08:20;1.27;;;0.90;;
9524;SDS011;15940;48.734;9.112;2023-09-19T14:10:48;1.67;;;1.10;;
9524;SDS011;15940;48.734;9.112;2023-09-19T14:13:15;1.23;;;1.10;;
9524;SDS011;15940;48.734;9.112;2023-09-19T14:15:43;1.37;;;1.27;;
9524;SDS011;15940;48.734;9.112;2023-09-19T14:18:10;2.30;;;1.37;;
9524;SDS011;15940;48.734;9.112;2023-09-19T14:20:38;4.10;;;1.47;;
9524;SDS011;15940;48.734;9.112;2023-09-19T14:23:06;2.47;;;1.10;;
9524;SDS011;15940;48.734;9.112;2023-09-19T14:25:34;2.17;;;1.37;;
9524;SDS011;15940;48.734;9.112;2023-09-19T14:28:01;2.30;;;1.50;;
9524;SDS011;15940;48.734;9.112;2023-09-19T14:30:28;1.90;;;1.30;;
9524;SDS011;15940;48.734;9.112;2023-09-19T14:32:57;1.50;;;1.23;;
9524;SDS011;15940;48.734;9.112;2023-09-19T14:35:24;1.43;;;1.17;;
9524;SDS011;15940;48.734;9.112;2023-09-19T14:37:51;1.37;;;1.27;;
9524;SDS011;15940;48.734;9.112;2023-09-19T14:40:17;1.83;;;1.20;;
9524;SDS011;15940;48.734;9.112;2023-09-19T14:42:44;1.20;;;1.10;;
9524;SDS011;15940;48.734;9.112;2023-09-19T14:45:13;1.40;;;1.30;;
9524;SDS011;15940;48.734;9.112;2023-09-19T14:47:43;1.47;;;1.23;;
9524;SDS011;15940;48.734;9.112;2023-09-19T14:50:11;3.30;;;1.40;;
9524;SDS011;15940;48.734;9.112;2023-09-19T14:52:40;1.87;;;1.30;;
9524;SDS011;15940;48.734;9.112;2023-09-19T14:55:07;0.93;;;0.93;;
9524;SDS011;15940;48.734;9.112;2023-09-19T14:57:40;1.87;;;1.20;;
9524;SDS011;15940;48.734;9.112;2023-09-19T15:00:10;1.30;;;1.20;;
9524;SDS011;15940;48.734;9.112;2023-09-19T15:02:39;1.40;;;1.30;;
9524;SDS011;15940;48.734;9.112;2023-09-19T15:05:06;1.30;;;1.20;;
9524;SDS011;15940;48.734;9.112;2023-09-19T15:07:36;1.00;;;1.00;;
9524;SDS011;15940;48.734;9.112;2023-09-19T15:10:03;1.80;;;1.27;;
9524;SDS011;15940;48.734;9.112;2023-09-19T15:12:34;1.17;;;1.10;;
9524;SDS011;15940;48.734;9.112;2023-09-19T15:15:03;1.53;;;1.00;;
9524;SDS011;15940;48.734;9.112;2023-09-19T15:17:32;1.47;;;1.30;;
9524;SDS011;15940;48.734;9.112;2023-09-19T15:19:59;1.03;;;1.03;;
9524;SDS011;15940;48.734;9.112;2023-09-19T15:22:27;1.20;;;1.10;;
9524;SDS011;15940;48.734;9.112;2023-09-19T15:24:55;1.97;;;0.83;;
9524;SDS011;15940;48.734;9.112;2023-09-19T15:27:22;1.20;;;1.10;;
9524;SDS011;15940;48.734;9.112;2023-09-19T15:29:49;3.73;;;1.10;;
9524;SDS011;15940;48.734;9.112;2023-09-19T15:32:16;2.50;;;1.10;;
9524;SDS011;15940;48.734;9.112;2023-09-19T15:34:43;1.20;;;1.10;;
9524;SDS011;15940;48.734;9.112;2023-09-19T15:37:10;1.30;;;1.20;;
9524;SDS011;15940;48.734;9.112;2023-09-19T15:39:38;1.50;;;1.40;;